createdAt,value
2022-08-17T00:04:50.643Z,100
2022-08-17T00:10:19.897Z,100
2022-08-17T00:15:42.521Z,100
2022-08-17T00:21:26.944Z,100
2022-08-17T00:26:52.191Z,100
2022-08-17T00:33:10.142Z,100
2022-08-17T00:38:03.434Z,100
2022-08-17T00:43:53.603Z,100
2022-08-17T00:49:24.155Z,100
2022-08-17T00:54:54.000Z,100
2022-08-17T01:00:30.952Z,100
2022-08-17T01:05:58.228Z,100
2022-08-17T01:11:35.883Z,100
2022-08-17T01:17:14.652Z,100
2022-08-17T01:22:56.176Z,100
2022-08-17T01:28:53.502Z,100
2022-08-17T01:34:12.835Z,100
2022-08-17T01:39:59.420Z,100
2022-08-17T01:45:17.418Z,100
2022-08-17T01:50:48.351Z,100
2022-08-17T01:56:28.440Z,100
2022-08-17T02:02:11.091Z,100
2022-08-17T02:08:00.133Z,100
2022-08-17T02:13:20.854Z,100
2022-08-17T02:19:07.306Z,100
2022-08-17T02:24:59.058Z,100
2022-08-17T02:30:50.006Z,100
2022-08-17T02:35:34.901Z,100
2022-08-17T02:41:27.822Z,100
2022-08-17T02:47:02.043Z,100
2022-08-17T02:52:40.591Z,100
2022-08-17T02:57:53.650Z,100
2022-08-17T03:03:45.834Z,100
2022-08-17T03:09:13.981Z,100
2022-08-17T03:14:55.421Z,100
2022-08-17T03:20:18.014Z,100
2022-08-17T03:26:00.817Z,100
2022-08-17T03:31:22.980Z,100
2022-08-17T03:37:20.085Z,100
2022-08-17T03:42:56.135Z,100
2022-08-17T03:48:09.091Z,100
2022-08-17T03:54:02.255Z,100
2022-08-17T03:59:22.490Z,100
2022-08-17T04:05:01.137Z,100
2022-08-17T04:10:55.637Z,100
2022-08-17T04:16:09.914Z,100
2022-08-17T04:21:56.734Z,100
2022-08-17T04:27:18.727Z,100
2022-08-17T04:33:14.308Z,100
2022-08-17T04:38:52.934Z,100
2022-08-17T04:44:04.519Z,100
2022-08-17T04:49:41.687Z,100
2022-08-17T04:55:28.945Z,100
2022-08-17T05:00:50.294Z,100
2022-08-17T05:06:36.280Z,100
2022-08-17T05:12:28.300Z,100
2022-08-17T05:17:43.336Z,100
2022-08-17T05:23:41.613Z,100
2022-08-17T05:28:57.074Z,100
2022-08-17T05:34:46.788Z,100
2022-08-17T05:40:14.265Z,100
2022-08-17T05:45:46.107Z,100
2022-08-17T05:51:11.754Z,100
2022-08-17T05:56:44.546Z,100
2022-08-17T06:02:43.056Z,100
2022-08-17T06:07:53.167Z,100
2022-08-17T06:13:43.318Z,100
2022-08-17T06:19:11.796Z,100
2022-08-17T06:24:48.966Z,100
2022-08-17T06:30:57.650Z,100
2022-08-17T06:36:17.715Z,100
2022-08-17T06:41:37.859Z,100
2022-08-17T06:47:28.246Z,100
2022-08-17T06:53:06.829Z,100
2022-08-17T06:58:21.961Z,100
2022-08-17T07:04:05.097Z,100
2022-08-17T07:09:45.254Z,100
2022-08-17T07:15:13.782Z,100
2022-08-17T07:21:17.629Z,100
2022-08-17T07:26:41.639Z,100
2022-08-17T07:32:28.662Z,100
2022-08-17T07:37:46.078Z,100
2022-08-17T07:43:21.660Z,100
2022-08-17T07:49:10.774Z,100
2022-08-17T07:54:47.121Z,100
2022-08-17T08:00:19.292Z,100
2022-08-17T08:05:54.267Z,100
2022-08-17T08:11:45.314Z,100
2022-08-17T08:17:20.037Z,100
2022-08-17T08:22:44.013Z,100
2022-08-17T08:28:23.027Z,100
2022-08-17T08:34:44.702Z,96
2022-08-17T08:39:40.363Z,93
2022-08-17T08:45:25.425Z,89
2022-08-17T08:51:04.194Z,92
2022-08-17T08:56:34.199Z,90
2022-08-17T09:02:20.277Z,92
2022-08-17T09:07:50.075Z,89
2022-08-17T09:13:25.326Z,83
2022-08-17T09:19:01.997Z,89
2022-08-17T09:24:45.817Z,88
2022-08-17T09:30:10.590Z,85
2022-08-17T09:36:10.843Z,81
2022-08-17T09:41:52.177Z,84
2022-08-17T09:47:30.926Z,82
2022-08-17T09:52:49.470Z,83
2022-08-17T09:58:40.615Z,81
2022-08-17T10:04:11.538Z,81
2022-08-17T10:09:53.486Z,81
2022-08-17T10:15:25.269Z,79
2022-08-17T10:20:58.596Z,77
2022-08-17T10:26:55.807Z,75
2022-08-17T10:32:22.899Z,71
2022-08-17T10:38:08.484Z,76
2022-08-17T10:43:41.905Z,70
2022-08-17T10:49:34.418Z,73
2022-08-17T10:54:59.051Z,71
2022-08-17T11:00:27.672Z,71
2022-08-17T11:06:03.833Z,67
2022-08-17T11:11:59.847Z,64
2022-08-17T11:17:32.505Z,66
2022-08-17T11:23:27.718Z,67
2022-08-17T11:29:06.953Z,69
2022-08-17T11:34:31.409Z,68
2022-08-17T11:40:16.266Z,67
2022-08-17T11:45:50.852Z,65
2022-08-17T11:51:39.382Z,65
2022-08-17T11:57:04.887Z,61
2022-08-17T12:02:52.200Z,59
2022-08-17T12:08:16.874Z,59
2022-08-17T12:13:58.797Z,59
2022-08-17T12:19:37.343Z,64
2022-08-17T12:25:25.182Z,64
2022-08-17T12:30:58.082Z,57
2022-08-17T12:36:37.818Z,62
2022-08-17T12:42:37.864Z,60
2022-08-17T12:48:03.719Z,57
2022-08-17T12:53:40.475Z,60
2022-08-17T12:59:29.656Z,61
2022-08-17T13:05:20.116Z,59
2022-08-17T13:11:01.003Z,61
2022-08-17T13:16:32.733Z,58
2022-08-17T13:22:16.015Z,57
2022-08-17T13:27:36.752Z,59
2022-08-17T13:33:11.339Z,56
2022-08-17T13:38:52.263Z,54
2022-08-17T13:44:39.443Z,52
2022-08-17T13:50:28.599Z,53
2022-08-17T13:56:04.891Z,55
2022-08-17T14:01:32.545Z,59
2022-08-17T14:07:04.993Z,58
2022-08-17T14:13:03.344Z,60
2022-08-17T14:18:35.596Z,71
2022-08-17T14:24:05.494Z,74
2022-08-17T14:30:02.584Z,70
2022-08-17T14:35:22.059Z,64
2022-08-17T14:41:08.950Z,63
2022-08-17T14:46:39.327Z,63
2022-08-17T14:52:09.799Z,56
2022-08-17T14:57:57.806Z,57
2022-08-17T15:03:34.329Z,57
2022-08-17T15:09:12.782Z,56
2022-08-17T15:14:49.493Z,58
2022-08-17T15:20:39.398Z,60
2022-08-17T15:25:54.333Z,59
2022-08-17T15:31:37.214Z,58
2022-08-17T15:37:29.543Z,61
2022-08-17T15:42:54.146Z,63
2022-08-17T15:48:21.576Z,65
2022-08-17T15:54:22.627Z,67
2022-08-17T15:59:46.540Z,69
2022-08-17T16:05:26.417Z,75
2022-08-17T16:11:07.770Z,80
2022-08-17T16:16:56.469Z,86
2022-08-17T16:22:15.381Z,96
2022-08-17T16:28:09.484Z,100
2022-08-17T16:33:34.756Z,100
2022-08-17T16:39:01.512Z,100
2022-08-17T16:44:29.668Z,100
2022-08-17T16:50:06.971Z,100
2022-08-17T16:55:42.508Z,100
2022-08-17T17:01:19.891Z,100
2022-08-17T17:07:07.566Z,100
2022-08-17T17:12:59.755Z,100
2022-08-17T17:18:18.897Z,100
2022-08-17T17:24:04.647Z,100
2022-08-17T17:29:20.217Z,100
2022-08-17T17:35:08.305Z,100
2022-08-17T17:40:39.550Z,100
2022-08-17T17:46:27.003Z,100
2022-08-17T17:51:54.871Z,100
2022-08-17T17:57:43.606Z,100
2022-08-17T18:03:19.971Z,100
2022-08-17T18:08:50.711Z,100
2022-08-17T18:14:28.197Z,100
2022-08-17T18:19:51.368Z,100
2022-08-17T18:25:44.327Z,100
2022-08-17T18:31:18.205Z,100
2022-08-17T18:36:30.053Z,100
2022-08-17T18:42:23.876Z,100
2022-08-17T18:48:04.772Z,100
2022-08-17T18:53:34.486Z,100
2022-08-17T18:59:08.516Z,100
2022-08-17T19:04:39.027Z,100
2022-08-17T19:10:18.294Z,100
2022-08-17T19:15:46.703Z,100
2022-08-17T19:21:43.203Z,100
2022-08-17T19:27:03.210Z,100
2022-08-17T19:32:52.856Z,100
2022-08-17T19:38:18.266Z,100
2022-08-17T19:43:50.304Z,100
2022-08-17T19:49:41.071Z,100
2022-08-17T19:54:55.717Z,100
2022-08-17T20:00:34.897Z,100
2022-08-17T20:06:14.146Z,100
2022-08-17T20:11:52.674Z,100
2022-08-17T20:17:21.556Z,100
2022-08-17T20:23:12.247Z,100
2022-08-17T20:28:37.946Z,100
2022-08-17T20:34:07.178Z,100
2022-08-17T20:39:34.047Z,100
2022-08-17T20:45:11.548Z,100
2022-08-17T20:50:51.768Z,100
2022-08-17T20:56:30.913Z,100
2022-08-17T21:02:18.227Z,100
2022-08-17T21:07:43.911Z,100
2022-08-17T21:13:04.708Z,100
2022-08-17T21:19:01.233Z,100
2022-08-17T21:24:21.843Z,100
2022-08-17T21:29:44.924Z,100
2022-08-17T21:35:46.281Z,100
2022-08-17T21:41:09.658Z,100
2022-08-17T21:46:47.046Z,100
2022-08-17T21:52:05.636Z,100
2022-08-17T21:57:53.271Z,100
2022-08-17T22:03:18.565Z,100
2022-08-17T22:09:01.389Z,100
2022-08-17T22:14:51.870Z,100
2022-08-17T22:19:57.190Z,100
2022-08-17T22:25:55.445Z,100
2022-08-17T22:31:33.198Z,100
2022-08-17T22:36:51.985Z,100
2022-08-17T22:42:27.191Z,100
2022-08-17T22:47:54.556Z,100
2022-08-17T22:53:28.603Z,100
2022-08-17T22:59:24.512Z,100
2022-08-17T23:05:00.437Z,100
2022-08-17T23:10:32.236Z,100
2022-08-17T23:16:09.116Z,100
2022-08-17T23:21:36.329Z,100
2022-08-17T23:26:58.330Z,100
2022-08-17T23:32:55.532Z,100
2022-08-17T23:38:24.209Z,100
2022-08-17T23:44:04.172Z,100
2022-08-17T23:49:32.780Z,100
2022-08-17T23:55:01.022Z,100
